createdAt,value
2023-01-25T00:02:09.868Z,2.70
2023-01-25T00:16:52.517Z,2.70
2023-01-25T00:24:14.493Z,2.70
2023-01-25T00:26:43.854Z,2.70
2023-01-25T00:29:13.235Z,2.60
2023-01-25T00:31:49.196Z,2.70
2023-01-25T00:34:25.206Z,2.60
2023-01-25T00:36:57.729Z,2.60
2023-01-25T00:39:26.859Z,2.60
2023-01-25T00:41:53.994Z,2.60
2023-01-25T00:44:20.820Z,2.60
2023-01-25T00:46:48.016Z,2.60
2023-01-25T00:49:22.117Z,2.60
2023-01-25T00:51:49.536Z,2.60
2023-01-25T00:54:16.642Z,2.70
2023-01-25T01:06:35.905Z,2.60
2023-01-25T01:11:31.452Z,2.50
2023-01-25T01:13:59.599Z,2.50
2023-01-25T01:16:26.920Z,2.50
2023-01-25T01:21:21.825Z,2.50
2023-01-25T01:26:19.260Z,2.50
2023-01-25T01:31:19.149Z,2.50
2023-01-25T01:33:53.393Z,2.50
2023-01-25T01:36:21.849Z,2.40
2023-01-25T01:46:34.465Z,2.50
2023-01-25T01:49:16.460Z,2.50
2023-01-25T01:52:07.366Z,2.40
2023-01-25T01:54:39.107Z,2.40
2023-01-25T01:57:44.752Z,2.40
2023-01-25T02:00:23.200Z,2.30
2023-01-25T02:02:51.402Z,2.40
2023-01-25T02:05:25.924Z,2.30
2023-01-25T02:07:55.031Z,2.30
2023-01-25T02:10:23.430Z,2.40
2023-01-25T02:15:17.271Z,2.40
2023-01-25T02:17:44.070Z,2.30
2023-01-25T02:20:19.556Z,2.40
2023-01-25T02:22:53.261Z,2.40
2023-01-25T02:25:20.225Z,2.50
2023-01-25T02:27:53.801Z,2.40
2023-01-25T02:30:20.861Z,2.40
2023-01-25T02:35:21.964Z,2.40
2023-01-25T02:37:49.768Z,2.40
2023-01-25T02:40:18.279Z,2.40
2023-01-25T02:42:45.829Z,2.40
2023-01-25T02:45:17.692Z,2.30
2023-01-25T02:57:36.631Z,2.30
2023-01-25T03:00:05.697Z,2.30
2023-01-25T03:02:32.688Z,2.30
2023-01-25T03:19:41.990Z,2.30
2023-01-25T03:22:09.645Z,2.20
2023-01-25T03:27:18.315Z,2.20
2023-01-25T03:29:45.647Z,2.20
2023-01-25T03:46:54.862Z,2.20
2023-01-25T03:49:21.548Z,2.20
2023-01-25T03:59:11.320Z,2.20
2023-01-25T04:01:38.159Z,2.30
2023-01-25T04:11:26.115Z,2.20
2023-01-25T04:13:52.767Z,2.20
2023-01-25T04:18:46.764Z,2.10
2023-01-25T04:23:40.569Z,2.10
2023-01-25T04:26:09.300Z,2.10
2023-01-25T04:28:36.326Z,2.10
2023-01-25T04:31:03.658Z,2.10
2023-01-25T04:35:57.806Z,2.10
2023-01-25T04:40:52.627Z,2.10
2023-01-25T04:43:20.491Z,2.10
2023-01-25T04:45:47.350Z,2.10
2023-01-25T04:50:43.256Z,2.10
2023-01-25T04:53:11.849Z,2.00
2023-01-25T04:55:38.939Z,2.10
2023-01-25T05:05:27.194Z,2.10
2023-01-25T05:20:10.551Z,2.20
2023-01-25T05:30:00.267Z,2.20
2023-01-25T05:34:54.300Z,2.10
2023-01-25T05:37:21.608Z,2.20
2023-01-25T05:39:48.396Z,2.20
2023-01-25T05:42:17.840Z,2.20
2023-01-25T05:44:47.354Z,2.10
2023-01-25T05:47:16.242Z,2.00
2023-01-25T05:52:14.835Z,2.10
2023-01-25T05:54:41.726Z,2.20
2023-01-25T06:02:02.691Z,2.10
2023-01-25T06:06:56.755Z,2.00
2023-01-25T06:14:18.151Z,2.00
2023-01-25T06:19:13.996Z,2.10
2023-01-25T06:29:05.501Z,2.10
2023-01-25T06:36:30.944Z,2.10
2023-01-25T06:41:24.749Z,2.00
2023-01-25T06:43:51.777Z,2.10
2023-01-25T06:46:19.050Z,2.00
2023-01-25T06:48:45.747Z,2.00
2023-01-25T06:51:14.013Z,2.00
2023-01-25T06:53:43.408Z,2.00
2023-01-25T06:56:19.277Z,2.00
2023-01-25T06:58:46.317Z,2.10
2023-01-25T07:01:14.850Z,2.00
2023-01-25T07:03:42.063Z,1.90
2023-01-25T07:06:10.648Z,2.00
2023-01-25T07:11:06.889Z,1.90
2023-01-25T07:13:34.569Z,1.80
2023-01-25T07:16:04.311Z,1.90
2023-01-25T07:18:32.017Z,1.80
2023-01-25T07:21:07.559Z,1.90
2023-01-25T07:23:34.648Z,1.90
2023-01-25T07:26:01.794Z,1.90
2023-01-25T07:30:57.011Z,1.90
2023-01-25T07:33:23.851Z,1.90
2023-01-25T07:38:17.869Z,1.90
2023-01-25T07:48:10.848Z,1.90
2023-01-25T07:50:37.519Z,1.90
2023-01-25T07:53:04.224Z,1.90
2023-01-25T07:55:31.159Z,1.90
2023-01-25T07:57:57.821Z,1.90
2023-01-25T08:00:25.133Z,2.00
2023-01-25T08:02:52.743Z,1.90
2023-01-25T08:05:19.758Z,1.80
2023-01-25T08:07:47.108Z,1.90
2023-01-25T08:12:45.606Z,1.90
2023-01-25T08:15:13.670Z,1.90
2023-01-25T08:20:08.875Z,2.00
2023-01-25T08:22:35.728Z,2.00
2023-01-25T08:25:03.518Z,2.00
2023-01-25T08:27:30.162Z,2.00
2023-01-25T08:37:18.175Z,2.10
2023-01-25T08:39:44.847Z,2.00
2023-01-25T08:52:01.396Z,2.00
2023-01-25T08:56:55.655Z,1.90
2023-01-25T08:59:22.907Z,1.90
2023-01-25T09:01:50.107Z,1.90
2023-01-25T09:04:17.172Z,1.90
2023-01-25T09:06:44.617Z,1.90
2023-01-25T09:09:13.104Z,1.90
2023-01-25T09:11:40.957Z,1.90
2023-01-25T09:14:08.165Z,1.90
2023-01-25T09:19:05.531Z,2.00
2023-01-25T09:21:34.141Z,2.00
2023-01-25T09:26:39.942Z,1.90
2023-01-25T09:29:08.093Z,1.90
2023-01-25T09:31:35.864Z,2.00
2023-01-25T09:34:03.694Z,2.00
2023-01-25T09:36:30.822Z,2.00
2023-01-25T09:38:58.082Z,2.00
2023-01-25T09:41:33.347Z,2.00
2023-01-25T09:44:43.544Z,1.90
2023-01-25T09:47:48.841Z,1.90
2023-01-25T09:50:35.787Z,1.80
2023-01-25T09:53:20.664Z,1.90
2023-01-25T09:55:59.551Z,1.90
2023-01-25T09:58:40.350Z,2.00
2023-01-25T10:01:14.585Z,2.00
2023-01-25T10:03:59.846Z,2.10
2023-01-25T10:06:40.646Z,2.10
2023-01-25T10:09:28.423Z,2.20
2023-01-25T10:14:22.389Z,2.30
2023-01-25T10:19:27.851Z,2.20
2023-01-25T10:22:00.938Z,2.30
2023-01-25T10:25:07.409Z,2.20
2023-01-25T10:27:58.355Z,2.10
2023-01-25T10:30:42.881Z,2.30
2023-01-25T10:33:15.751Z,2.30
2023-01-25T10:35:47.236Z,2.30
2023-01-25T10:38:24.950Z,2.30
2023-01-25T10:41:06.440Z,2.30
2023-01-25T10:43:33.192Z,2.30
2023-01-25T10:45:59.890Z,2.20
2023-01-25T10:48:35.251Z,2.20
2023-01-25T10:51:02.001Z,2.30
2023-01-25T10:53:35.423Z,2.30
2023-01-25T10:56:11.078Z,2.20
2023-01-25T10:58:42.527Z,2.40
2023-01-25T11:01:13.619Z,2.40
2023-01-25T11:03:44.808Z,2.50
2023-01-25T11:11:44.852Z,2.30
2023-01-25T11:14:18.380Z,2.30
2023-01-25T11:16:50.586Z,2.30
2023-01-25T11:19:32.345Z,2.20
2023-01-25T11:22:00.562Z,2.30
2023-01-25T11:24:33.745Z,2.20
2023-01-25T11:27:20.617Z,2.10
2023-01-25T11:30:10.271Z,2.10
2023-01-25T11:32:39.641Z,2.20
2023-01-25T11:35:16.515Z,2.10
2023-01-25T11:37:49.010Z,2.20
2023-01-25T11:40:18.679Z,2.30
2023-01-25T11:42:58.433Z,2.30
2023-01-25T11:45:42.478Z,2.30
2023-01-25T11:48:27.355Z,2.20
2023-01-25T11:51:14.041Z,2.20
2023-01-25T11:54:18.677Z,2.20
2023-01-25T11:57:00.113Z,2.20
2023-01-25T11:59:45.425Z,2.20
2023-01-25T12:05:21.110Z,2.20
2023-01-25T12:08:05.329Z,2.20
2023-01-25T12:10:35.089Z,2.20
2023-01-25T12:13:29.428Z,2.30
2023-01-25T12:16:09.996Z,2.20
2023-01-25T12:18:54.819Z,2.30
2023-01-25T12:21:41.408Z,2.30
2023-01-25T12:24:19.986Z,2.30
2023-01-25T12:27:05.218Z,2.30
2023-01-25T12:29:44.469Z,2.40
2023-01-25T12:32:19.036Z,2.40
2023-01-25T12:34:51.523Z,2.00
2023-01-25T12:37:37.425Z,2.40
2023-01-25T12:40:15.470Z,2.50
2023-01-25T12:42:52.160Z,2.40
2023-01-25T12:45:28.947Z,2.40
2023-01-25T12:48:10.221Z,2.50
2023-01-25T12:50:47.080Z,2.50
2023-01-25T12:53:17.887Z,2.80
2023-01-25T12:58:37.319Z,2.30
2023-01-25T13:01:35.721Z,2.30
2023-01-25T13:04:35.397Z,2.40
2023-01-25T13:07:18.945Z,2.40
2023-01-25T13:09:57.989Z,2.30
2023-01-25T13:12:24.804Z,2.40
2023-01-25T13:14:51.742Z,2.30
2023-01-25T13:17:34.840Z,2.40
2023-01-25T13:20:05.317Z,2.50
2023-01-25T13:22:44.644Z,2.50
2023-01-25T13:25:17.066Z,2.50
2023-01-25T13:30:19.904Z,2.50
2023-01-25T13:32:49.572Z,2.50
2023-01-25T13:35:29.742Z,2.50
2023-01-25T13:38:03.285Z,2.50
2023-01-25T13:40:36.487Z,2.50
2023-01-25T13:43:17.896Z,2.40
2023-01-25T13:45:47.198Z,2.30
2023-01-25T13:48:19.622Z,2.40
2023-01-25T13:50:50.974Z,2.40
2023-01-25T13:53:17.619Z,2.40
2023-01-25T13:55:46.878Z,2.40
2023-01-25T13:58:22.829Z,2.40
2023-01-25T14:00:57.348Z,2.40
2023-01-25T14:03:30.995Z,2.40
2023-01-25T14:06:02.488Z,2.40
2023-01-25T14:08:30.177Z,2.30
2023-01-25T14:10:57.929Z,2.30
2023-01-25T14:13:25.016Z,2.30
2023-01-25T14:15:57.393Z,2.30
2023-01-25T14:18:33.264Z,2.40
2023-01-25T14:21:10.636Z,2.40
2023-01-25T14:23:37.575Z,2.40
2023-01-25T14:26:04.681Z,2.40
2023-01-25T14:28:31.527Z,2.40
2023-01-25T14:31:01.292Z,2.40
2023-01-25T14:33:31.006Z,2.40
2023-01-25T14:36:24.341Z,2.40
2023-01-25T14:38:51.821Z,2.40
2023-01-25T14:41:51.690Z,2.30
2023-01-25T14:44:27.234Z,2.40
2023-01-25T14:47:31.201Z,2.40
2023-01-25T14:50:32.715Z,2.40
2023-01-25T14:53:20.724Z,2.40
2023-01-25T14:55:49.140Z,2.40
2023-01-25T14:58:23.907Z,2.30
2023-01-25T15:00:54.782Z,2.30
2023-01-25T15:05:49.481Z,2.30
2023-01-25T15:08:27.687Z,2.30
2023-01-25T15:10:57.022Z,2.40
2023-01-25T15:13:26.786Z,2.30
2023-01-25T15:16:00.082Z,2.40
2023-01-25T15:18:45.581Z,2.30
2023-01-25T15:21:33.289Z,2.30
2023-01-25T15:24:05.017Z,2.40
2023-01-25T15:26:33.609Z,2.30
2023-01-25T15:29:05.531Z,2.40
2023-01-25T15:31:34.827Z,2.40
2023-01-25T15:36:30.284Z,2.40
2023-01-25T15:43:52.047Z,2.30
2023-01-25T15:46:26.125Z,2.30
2023-01-25T15:48:53.410Z,2.40
2023-01-25T15:51:20.812Z,2.30
2023-01-25T15:53:47.892Z,2.30
2023-01-25T15:56:24.024Z,2.40
2023-01-25T15:58:53.229Z,2.30
2023-01-25T16:01:20.795Z,2.30
2023-01-25T16:03:47.629Z,2.30
2023-01-25T16:06:24.724Z,2.30
2023-01-25T16:08:51.601Z,2.20
2023-01-25T16:11:18.364Z,2.10
2023-01-25T16:13:45.017Z,2.10
2023-01-25T16:16:18.756Z,2.20
2023-01-25T16:21:13.249Z,2.20
2023-01-25T16:23:40.350Z,2.20
2023-01-25T16:26:23.086Z,2.20
2023-01-25T16:28:49.976Z,2.20
2023-01-25T16:31:31.371Z,2.20
2023-01-25T16:34:00.112Z,2.20
2023-01-25T16:36:27.013Z,2.20
2023-01-25T16:38:53.808Z,2.10
2023-01-25T16:43:48.739Z,2.20
2023-01-25T16:46:23.308Z,2.30
2023-01-25T16:48:52.345Z,2.10
2023-01-25T16:51:21.900Z,2.20
2023-01-25T16:53:50.194Z,2.20
2023-01-25T16:56:22.748Z,2.20
2023-01-25T16:58:50.630Z,2.20
2023-01-25T17:01:19.181Z,2.20
2023-01-25T17:06:20.945Z,2.00
2023-01-25T17:11:18.683Z,2.10
2023-01-25T17:13:50.283Z,2.10
2023-01-25T17:16:18.685Z,2.10
2023-01-25T17:18:46.241Z,2.00
2023-01-25T17:21:14.584Z,2.00
2023-01-25T17:23:42.539Z,2.00
2023-01-25T17:26:12.561Z,2.00
2023-01-25T17:31:23.159Z,2.10
2023-01-25T17:38:44.720Z,2.10
2023-01-25T17:41:14.319Z,2.10
2023-01-25T17:43:41.561Z,2.10
2023-01-25T17:46:22.715Z,2.10
2023-01-25T17:53:44.404Z,2.00
2023-01-25T17:56:12.341Z,2.00
2023-01-25T17:58:40.004Z,2.00
2023-01-25T18:01:14.066Z,2.00
2023-01-25T18:03:41.713Z,2.00
2023-01-25T18:06:10.001Z,2.00
2023-01-25T18:08:41.857Z,2.10
2023-01-25T18:11:10.302Z,2.10
2023-01-25T18:13:41.471Z,2.10
2023-01-25T18:16:09.565Z,2.00
2023-01-25T18:18:41.650Z,2.10
2023-01-25T18:21:11.843Z,2.00
2023-01-25T18:23:40.618Z,2.00
2023-01-25T18:26:16.066Z,1.90
2023-01-25T18:28:42.809Z,1.90
2023-01-25T18:31:10.579Z,1.80
2023-01-25T18:33:38.315Z,1.70
2023-01-25T18:36:05.545Z,1.80
2023-01-25T18:38:32.863Z,1.80
2023-01-25T18:40:59.943Z,1.80
2023-01-25T18:43:28.074Z,1.80
2023-01-25T18:45:56.256Z,1.70
2023-01-25T18:48:30.526Z,1.80
2023-01-25T18:51:17.816Z,1.80
2023-01-25T18:56:19.733Z,1.70
2023-01-25T19:01:19.390Z,1.70
2023-01-25T19:06:14.418Z,1.70
2023-01-25T19:08:43.973Z,1.60
2023-01-25T19:11:13.884Z,1.70
2023-01-25T19:13:41.793Z,1.50
2023-01-25T19:16:19.789Z,1.60
2023-01-25T19:18:49.917Z,1.60
2023-01-25T19:21:27.818Z,1.50
2023-01-25T19:23:55.750Z,1.50
2023-01-25T19:26:24.464Z,1.50
2023-01-25T19:28:53.489Z,1.50
2023-01-25T19:31:25.250Z,1.50
2023-01-25T19:34:03.479Z,1.50
2023-01-25T19:36:32.385Z,1.50
2023-01-25T19:41:28.515Z,1.40
2023-01-25T19:43:57.342Z,1.40
2023-01-25T19:46:27.194Z,1.40
2023-01-25T19:48:54.994Z,1.40
2023-01-25T19:51:24.621Z,1.40
2023-01-25T19:53:59.861Z,1.30
2023-01-25T19:56:28.139Z,1.30
2023-01-25T20:01:24.102Z,1.30
2023-01-25T20:03:51.742Z,1.30
2023-01-25T20:06:20.246Z,1.40
2023-01-25T20:08:47.954Z,1.30
2023-01-25T20:13:42.544Z,1.20
2023-01-25T20:16:10.478Z,1.30
2023-01-25T20:21:07.879Z,1.30
2023-01-25T20:23:36.759Z,1.30
2023-01-25T20:26:05.055Z,1.30
2023-01-25T20:28:36.394Z,1.30
2023-01-25T20:31:04.453Z,1.30
2023-01-25T20:33:35.426Z,1.30
2023-01-25T20:36:05.080Z,1.30
2023-01-25T20:38:33.570Z,1.30
2023-01-25T20:41:05.219Z,1.10
2023-01-25T20:46:00.174Z,1.30
2023-01-25T20:48:28.198Z,1.30
2023-01-25T20:51:02.834Z,1.30
2023-01-25T20:53:30.223Z,1.30
2023-01-25T20:56:00.039Z,1.30
2023-01-25T21:00:55.255Z,1.30
2023-01-25T21:03:23.096Z,1.30
2023-01-25T21:05:54.494Z,1.20
2023-01-25T21:08:22.197Z,1.20
2023-01-25T21:10:54.157Z,1.20
2023-01-25T21:16:07.688Z,1.20
2023-01-25T21:18:35.736Z,1.30
2023-01-25T21:21:16.962Z,1.20
2023-01-25T21:23:45.592Z,1.20
2023-01-25T21:26:18.858Z,1.10
2023-01-25T21:28:46.520Z,1.00
2023-01-25T21:31:15.841Z,1.10
2023-01-25T21:33:43.479Z,1.10
2023-01-25T21:36:14.258Z,1.20
2023-01-25T21:38:54.322Z,1.20
2023-01-25T21:41:29.763Z,1.20
2023-01-25T21:44:17.072Z,1.00
2023-01-25T21:47:12.458Z,1.10
2023-01-25T21:49:51.867Z,1.10
2023-01-25T22:02:11.364Z,1.00
2023-01-25T22:07:06.878Z,1.10
2023-01-25T22:12:01.867Z,1.10
2023-01-25T22:19:23.145Z,1.00
2023-01-25T22:24:17.141Z,1.00
2023-01-25T22:27:32.474Z,1.00
2023-01-25T22:34:53.379Z,1.00
2023-01-25T22:37:20.076Z,0.90
2023-01-25T22:49:36.116Z,0.90
2023-01-25T22:56:56.999Z,0.90
2023-01-25T23:01:50.773Z,0.90
2023-01-25T23:06:44.623Z,0.80
2023-01-25T23:14:25.439Z,0.80
2023-01-25T23:31:40.232Z,0.90
2023-01-25T23:34:07.409Z,0.90
2023-01-25T23:39:03.189Z,0.90
2023-01-25T23:41:30.563Z,0.90
2023-01-25T23:46:25.381Z,0.90
2023-01-25T23:56:17.219Z,0.80
